FW8953 Weather Reports


Display with metric or nautical units.
time (UTC)temp
F
wind
direction
speed
MPH
gust
MPH
rain 1hr
in
rain 24hr
in
rain mn
in
humidity
%
barometer
mb
20260509075537 71 194 8.0 15.0 0.00 0.17 0.00 89 1008.1
20260509075040 71 148 8.0 15.0 0.00 0.17 0.00 89 1008.5
20260509074547 71 186 9.0 15.0 0.00 0.17 0.00 89 1008.9
20260509074037 71 182 9.0 15.0 0.00 0.17 0.00 89 1009.2
20260509073535 71 188 8.0 15.0 0.00 0.17 0.00 89 1009.3
20260509073050 71 188 9.0 17.0 0.00 0.17 0.00 89 1009.4
20260509072537 71 191 10.0 18.0 0.00 0.17 0.00 89 1009.6
20260509072038 71 173 11.0 18.0 0.00 0.17 0.00 89 1009.7
20260509071552 71 188 10.0 14.0 0.00 0.17 0.00 89 1010.0
20260509071038 70 194 8.0 12.0 0.00 0.17 0.00 89 1010.2
20260509070621 70 182 7.0 12.0 0.00 0.17 0.00 89 1010.0
20260509070053 71 178 8.0 12.0 0.00 0.17 0.00 89 1010.2
20260509065537 71 192 8.0 10.0 0.00 0.17 0.00 89 1010.3
20260509065037 71 196 8.0 10.0 0.00 0.17 0.00 89 1010.4
20260509064550 71 200 7.0 9.0 0.00 0.17 0.00 89 1010.6
20260509064038 71 225 7.0 10.0 0.00 0.17 0.00 89 1010.6
20260509063537 71 225 7.0 10.0 0.00 0.17 0.00 89 1010.7
20260509063107 71 235 7.0 10.0 0.00 0.17 0.00 89 1010.7
20260509062538 71 223 8.0 11.0 0.00 0.17 0.00 90 1010.6
20260509062038 70 217 8.0 11.0 0.00 0.17 0.00 89 1010.4
20260509061609 71 213 9.0 11.0 0.00 0.17 0.00 89 1010.4
20260509061037 71 204 8.0 10.0 0.00 0.17 0.00 89 1010.4
20260509060541 71 200 8.0 11.0 0.00 0.17 0.00 88 1010.3
20260509060057 71 193 9.0 11.0 0.00 0.17 0.00 89 1010.2
20260509055538 71 194 7.0 10.0 0.00 0.17 0.00 89 1010.2
20260509055039 71 193 7.0 10.0 0.00 0.17 0.00 89 1010.3
20260509054549 71 190 7.0 10.0 0.00 0.17 0.00 89 1010.2
20260509054037 71 161 7.0 10.0 0.00 0.17 0.00 88 1010.4
20260509053537 71 197 3.0 5.0 0.00 0.17 0.00 88 1010.8
20260509053047 71 221 3.0 6.0 0.00 0.17 0.00 87 1010.9
20260509052538 71 236 3.0 6.0 0.00 0.17 0.00 86 1010.8
20260509052038 71 286 4.0 5.0 0.00 0.17 0.00 86 1011.2
20260509051545 71 260 2.0 6.0 0.00 0.17 0.00 86 1011.1
20260509051037 71 301 3.0 12.0 0.00 0.17 0.00 85 1011.3
20260509050537 71 11 5.0 13.0 0.00 0.17 0.00 86 1011.8
20260509050049 71 348 10.0 13.0 0.00 0.17 0.00 86 1012.2
20260509045537 72 348 10.0 13.0 0.00 0.17 0.17 85 1012.1
20260509045039 72 338 4.0 9.0 0.00 0.17 0.17 86 1011.4
20260509044549 72 217 3.0 7.0 0.00 0.17 0.17 85 1010.7
20260509044040 72 198 4.0 9.0 0.00 0.17 0.17 85 1010.6
20260509043537 72 196 6.0 9.0 0.00 0.17 0.17 84 1010.4
20260509043050 72 186 6.0 9.0 0.00 0.17 0.17 83 1010.4
20260509042537 72 171 5.0 10.0 0.00 0.17 0.17 82 1010.4
20260509042037 72 182 5.0 10.0 0.00 0.17 0.17 82 1010.2
20260509041544 72 183 1.0 7.0 0.00 0.17 0.17 81 1010.4
20260509041038 72 141 2.0 7.0 0.00 0.17 0.17 81 1010.6
20260509040537 72 115 4.0 11.0 0.00 0.17 0.17 81 1010.4
20260509040100 72 124 2.0 11.0 0.00 0.17 0.17 81 1010.3
20260509035537 72 146 4.0 9.0 0.00 0.17 0.17 82 1010.0
20260509035041 72 135 5.0 11.0 0.00 0.17 0.17 82 1009.8
20260509034546 72 146 3.0 11.0 0.00 0.17 0.17 81 1010.0
20260509034038 72 114 7.0 11.0 0.00 0.17 0.17 81 1009.7
20260509033537 72 152 6.0 11.0 0.00 0.17 0.17 81 1009.6
20260509033047 72 155 5.0 8.0 0.00 0.17 0.17 82 1010.0
20260509032537 72 155 0.0 3.0 0.00 0.17 0.17 82 1010.6
20260509032037 72 0 0.0 3.0 0.00 0.17 0.17 82 1011.0
20260509031549 73 27 1.0 3.0 0.00 0.17 0.17 82 1011.0
20260509031037 72 23 0.0 3.0 0.00 0.17 0.17 82 1011.0
20260509030537 72 23 1.0 4.0 0.00 0.17 0.17 81 1010.8
20260509030054 72 348 0.0 4.0 0.00 0.17 0.17 81 1010.7
20260509025538 72 5 1.0 7.0 0.00 0.17 0.17 81 1010.6
20260509025040 73 65 0.0 7.0 0.00 0.17 0.17 81 1010.3
20260509024547 72 143 3.0 7.0 0.00 0.17 0.17 81 1009.9
20260509024039 72 143 3.0 7.0 0.00 0.17 0.17 80 1009.9
20260509023537 72 137 2.0 8.0 0.00 0.17 0.17 80 1009.9
20260509023046 72 85 3.0 8.0 0.00 0.17 0.17 80 1009.6
20260509022537 72 121 3.0 8.0 0.00 0.17 0.17 80 1009.4
20260509022038 72 161 4.0 9.0 0.00 0.17 0.17 81 1009.0
20260509021548 72 153 3.0 10.0 0.00 0.17 0.17 81 1008.8
20260509021039 72 202 5.0 10.0 0.00 0.17 0.17 81 1008.6
20260509020537 72 139 5.0 10.0 0.00 0.17 0.17 81 1008.5
20260509020054 72 151 3.0 6.0 0.00 0.17 0.17 82 1008.7
20260509015538 72 151 3.0 7.0 0.00 0.17 0.17 82 1008.9
20260509015038 72 194 4.0 7.0 0.00 0.17 0.17 82 1008.8
20260509014549 72 169 5.0 7.0 0.00 0.17 0.17 82 1008.7
20260509014041 72 186 5.0 6.0 0.00 0.17 0.17 82 1008.6
20260509013537 72 194 4.0 6.0 0.00 0.17 0.17 83 1008.6
20260509013050 73 191 4.0 8.0 0.00 0.17 0.17 82 1008.6
20260509012536 73 178 5.0 9.0 0.00 0.17 0.17 81 1008.7
20260509012037 73 194 5.0 9.0 0.00 0.17 0.17 81 1008.8
20260509011545 73 183 6.0 9.0 0.00 0.17 0.17 82 1008.9
20260509011036 73 183 6.0 10.0 0.00 0.17 0.17 81 1008.9
20260509010538 73 183 6.0 10.0 0.00 0.17 0.17 81 1008.8
20260509010047 73 169 5.0 8.0 0.00 0.17 0.17 81 1008.9
20260509005537 73 154 4.0 9.0 0.00 0.17 0.17 81 1008.8
20260509005036 73 186 5.0 9.0 0.00 0.17 0.17 80 1008.7
20260509004546 73 186 5.0 9.0 0.00 0.17 0.17 80 1008.7
20260509004037 73 187 6.0 9.0 0.00 0.17 0.17 79 1008.5
20260509003537 73 163 4.0 9.0 0.00 0.17 0.17 78 1008.4
20260509003048 74 196 5.0 12.0 0.00 0.17 0.17 78 1008.3
20260509002539 74 152 7.0 12.0 0.00 0.17 0.17 77 1008.2
20260509002042 74 183 7.0 14.0 0.00 0.17 0.17 77 1008.1
20260509001545 74 164 7.0 14.0 0.00 0.17 0.17 77 1008.2
20260509001039 74 176 8.0 14.0 0.00 0.17 0.17 76 1008.1
20260509000537 74 161 6.0 11.0 0.00 0.17 0.17 77 1008.2
20260509000051 74 180 6.0 12.0 0.00 0.17 0.17 77 1008.2
20260508235537 74 191 9.0 13.0 0.00 0.17 0.17 77 1008.3
20260508235038 74 176 8.0 14.0 0.00 0.17 0.17 77 1008.3
20260508234553 74 180 10.0 14.0 0.00 0.17 0.17 76 1008.5
20260508234042 74 172 8.0 13.0 0.00 0.17 0.17 77 1008.6
20260508233538 74 184 9.0 13.0 0.00 0.17 0.17 77 1008.6
20260508233051 74 164 9.0 13.0 0.00 0.17 0.17 77 1008.6
20260508232538 74 182 9.0 13.0 0.00 0.17 0.17 77 1008.7
20260508232037 74 188 9.0 15.0 0.00 0.17 0.17 78 1008.7
20260508231546 74 182 10.0 15.0 0.00 0.17 0.17 77 1008.7
20260508231037 74 191 10.0 16.0 0.00 0.17 0.17 76 1008.7
20260508230538 74 190 8.0 17.0 0.00 0.17 0.17 77 1008.7
20260508230051 74 181 11.0 17.0 0.00 0.17 0.17 76 1008.7
20260508225538 74 192 10.0 16.0 0.00 0.17 0.17 77 1008.8
20260508225037 74 190 11.0 16.0 0.00 0.17 0.17 76 1008.7
20260508224546 74 192 10.0 14.0 0.00 0.17 0.17 76 1008.8
20260508224036 74 187 10.0 13.0 0.00 0.17 0.17 76 1008.8
20260508223537 74 200 10.0 13.0 0.00 0.17 0.17 76 1008.8
20260508223047 74 198 9.0 12.0 0.00 0.17 0.17 76 1008.8
20260508222540 73 184 9.0 12.0 0.00 0.17 0.17 77 1008.8
20260508222040 73 194 9.0 13.0 0.00 0.17 0.17 77 1008.8
20260508221556 74 207 9.0 13.0 0.00 0.17 0.17 76 1008.9
20260508221040 74 190 7.0 13.0 0.00 0.17 0.17 76 1008.9
20260508220536 74 196 9.0 13.0 0.00 0.17 0.17 74 1008.8
20260508220054 75 187 10.0 14.0 0.00 0.17 0.17 74 1008.8
20260508215538 75 186 9.0 14.0 0.00 0.17 0.17 74 1008.8
20260508215042 75 184 8.0 14.0 0.00 0.17 0.17 73 1008.7
20260508214546 75 183 6.0 14.0 0.00 0.17 0.17 73 1008.7
20260508214038 75 188 7.0 15.0 0.00 0.17 0.17 73 1008.8
20260508213536 74 170 9.0 15.0 0.00 0.17 0.17 73 1008.8
20260508213049 75 164 9.0 15.0 0.00 0.17 0.17 73 1008.9
20260508212537 74 165 9.0 15.0 0.00 0.17 0.17 73 1008.8
20260508212037 75 178 8.0 15.0 0.00 0.17 0.17 72 1008.6
20260508211552 75 194 7.0 14.0 0.00 0.17 0.17 73 1008.8
20260508211040 75 187 6.0 10.0 0.00 0.17 0.17 72 1009.0
20260508210540 74 124 4.0 13.0 0.00 0.17 0.17 74 1008.9
20260508210052 73 142 8.0 15.0 0.00 0.17 0.17 73 1009.1
20260508205539 73 191 10.0 15.0 0.00 0.17 0.17 73 1009.4
20260508205036 74 175 8.0 14.0 0.00 0.17 0.17 73 1009.6
20260508204547 73 194 6.0 14.0 0.00 0.17 0.17 75 1009.6
20260508204036 73 173 10.0 17.0 0.00 0.17 0.17 77 1009.9
20260508203537 73 194 12.0 17.0 0.00 0.17 0.17 77 1010.4
20260508203050 73 196 12.0 15.0 0.00 0.17 0.17 76 1010.5
20260508202538 73 192 10.0 13.0 0.00 0.17 0.17 77 1010.6
20260508202037 73 190 9.0 11.0 0.00 0.17 0.17 78 1010.6
20260508201557 73 194 9.0 12.0 0.00 0.17 0.17 77 1010.6
20260508201040 73 200 9.0 12.0 0.00 0.17 0.17 77 1010.6
20260508200539 73 198 9.0 12.0 0.00 0.17 0.17 77 1010.6
20260508200050 73 190 9.0 13.0 0.00 0.17 0.17 77 1010.6
20260508195537 73 190 8.0 15.0 0.00 0.17 0.17 76 1010.7
20260508195040 73 200 10.0 16.0 0.00 0.17 0.17 75 1010.7
20260508194546 73 183 12.0 16.0 0.00 0.17 0.17 75 1010.7
20260508194039 74 184 9.0 13.0 0.00 0.17 0.17 78 1010.7
20260508193539 74 205 9.0 12.0 0.00 0.17 0.17 74 1010.7
20260508193048 74 198 9.0 11.0 0.00 0.17 0.17 75 1010.7
20260508192537 74 195 7.0 10.0 0.00 0.17 0.17 74 1010.8
20260508192038 74 196 8.0 10.0 0.00 0.17 0.17 76 1010.8
20260508191547 74 208 8.0 11.0 0.00 0.17 0.17 74 1010.9
20260508191038 74 216 6.0 12.0 0.00 0.17 0.17 73 1011.0
20260508190538 74 196 7.0 12.0 0.00 0.17 0.17 73 1011.0
20260508190047 74 201 6.0 9.0 0.00 0.17 0.17 74 1011.0
20260508185541 74 188 5.0 9.0 0.00 0.17 0.17 75 1010.9
20260508185040 74 218 5.0 10.0 0.00 0.17 0.17 75 1011.0
20260508184546 73 192 6.0 10.0 0.00 0.17 0.17 75 1011.0
20260508184038 73 213 6.0 9.0 0.00 0.17 0.17 74 1011.1
20260508183539 73 219 4.0 7.0 0.00 0.17 0.17 74 1011.1
20260508183055 73 223 4.0 9.0 0.00 0.17 0.17 74 1011.2
20260508182538 72 227 6.0 9.0 0.00 0.17 0.17 74 1011.3
20260508182036 72 212 7.0 9.0 0.00 0.17 0.17 76 1011.4
20260508181558 72 232 5.0 7.0 0.00 0.17 0.17 74 1011.7
20260508181039 71 217 4.0 9.0 0.00 0.17 0.17 76 1011.8
20260508180541 71 227 6.0 9.0 0.00 0.17 0.17 74 1012.0
20260508180056 71 229 6.0 9.0 0.00 0.17 0.17 74 1012.0
20260508175539 71 238 6.0 8.0 0.00 0.17 0.17 74 1012.1
20260508175037 71 238 5.0 8.0 0.00 0.17 0.17 74 1012.1
20260508174605 72 231 4.0 7.0 0.00 0.17 0.17 73 1012.2
20260508174040 72 198 4.0 10.0 0.00 0.17 0.17 71 1012.2
20260508173539 72 159 4.0 10.0 0.00 0.17 0.17 70 1012.2
20260508173054 71 192 4.0 9.0 0.00 0.17 0.17 71 1012.2
20260508172538 71 180 4.0 9.0 0.00 0.17 0.17 71 1012.2
20260508172040 71 171 3.0 9.0 0.00 0.17 0.17 70 1012.2
20260508171548 70 192 6.0 10.0 0.00 0.17 0.17 71 1012.5
20260508171041 71 186 6.0 10.0 0.00 0.17 0.17 72 1012.6
20260508170537 70 121 4.0 10.0 0.00 0.17 0.17 72 1012.8
20260508170046 70 162 4.0 10.0 0.00 0.17 0.17 71 1012.8
20260508165539 70 182 5.0 9.0 0.00 0.17 0.17 72 1013.0
20260508165042 69 152 5.0 10.0 0.00 0.17 0.17 71 1013.3
20260508164548 69 200 6.0 12.0 0.00 0.17 0.17 72 1013.4
20260508164037 69 187 8.0 12.0 0.00 0.17 0.17 72 1013.6
20260508163538 69 187 8.0 11.0 0.00 0.17 0.17 71 1013.6
20260508163052 69 173 7.0 11.0 0.00 0.17 0.17 72 1013.6
20260508162539 69 147 6.0 11.0 0.00 0.17 0.17 72 1013.7
20260508162040 68 191 6.0 10.0 0.00 0.17 0.17 72 1013.7
20260508161545 68 153 5.0 10.0 0.00 0.17 0.17 73 1013.8
20260508161038 68 178 5.0 8.0 0.00 0.17 0.17 74 1013.9
20260508160536 68 208 5.0 9.0 0.00 0.17 0.17 75 1014.0
20260508160051 68 203 5.0 11.0 0.00 0.17 0.17 74 1014.0
20260508155542 68 187 5.0 11.0 0.00 0.17 0.17 73 1014.0
20260508155040 67 193 5.0 10.0 0.00 0.17 0.17 74 1014.1
20260508154551 67 188 6.0 10.0 0.00 0.17 0.17 74 1014.2
20260508154039 67 178 6.0 11.0 0.00 0.17 0.17 74 1014.4
20260508153540 67 145 3.0 11.0 0.00 0.17 0.17 75 1014.2
20260508153054 67 163 4.0 9.0 0.00 0.17 0.17 75 1014.3
20260508152539 67 157 5.0 9.0 0.00 0.17 0.17 74 1014.3
20260508152039 67 150 3.0 11.0 0.00 0.17 0.17 75 1014.3
20260508151555 66 153 4.0 11.0 0.00 0.17 0.17 75 1014.4
20260508151039 66 173 7.0 12.0 0.00 0.17 0.17 76 1014.5
20260508150538 66 190 8.0 12.0 0.00 0.17 0.17 77 1014.5
20260508150052 65 149 5.0 10.0 0.00 0.17 0.17 80 1014.4
20260508145539 65 180 2.0 5.0 0.00 0.17 0.17 82 1014.3
20260508145042 65 190 3.0 5.0 0.00 0.17 0.17 81 1014.4
20260508144550 65 200 3.0 5.0 0.00 0.17 0.17 81 1014.6
20260508144038 65 205 2.0 5.0 0.00 0.17 0.17 82 1014.6
20260508143539 65 171 2.0 4.0 0.00 0.17 0.17 82 1014.5
20260508143048 64 198 2.0 5.0 0.00 0.17 0.17 82 1014.7
20260508142540 64 200 2.0 7.0 0.00 0.17 0.17 83 1015.0
20260508142040 64 160 4.0 7.0 0.00 0.17 0.17 83 1014.7
20260508141612 64 181 2.0 5.0 0.00 0.17 0.17 84 1015.0
20260508141039 64 0 1.0 5.0 0.00 0.17 0.17 84 1014.8
20260508140539 64 134 1.0 4.0 0.00 0.17 0.17 85 1014.7
20260508140051 63 136 1.0 4.0 0.00 0.17 0.17 86 1014.7
20260508135540 63 165 1.0 5.0 0.00 0.17 0.17 86 1014.7
20260508135040 63 144 1.0 5.0 0.00 0.17 0.17 87 1014.8
20260508134556 63 124 2.0 5.0 0.00 0.17 0.17 87 1014.7
20260508134039 63 134 0.0 3.0 0.00 0.17 0.17 88 1014.7
20260508133538 62 0 0.0 4.0 0.00 0.17 0.17 88 1014.7
20260508133055 62 138 0.0 4.0 0.00 0.17 0.17 88 1014.9
20260508132542 62 0 0.0 7.0 0.00 0.17 0.17 88 1014.7
20260508132040 62 0 2.0 8.0 0.00 0.17 0.17 88 1014.6
20260508131548 62 133 3.0 8.0 0.00 0.17 0.17 88 1014.9
20260508131038 62 144 3.0 10.0 0.00 0.17 0.17 88 1014.8
20260508130541 62 145 3.0 10.0 0.00 0.17 0.17 89 1014.5
20260508130049 62 186 4.0 9.0 0.00 0.17 0.17 89 1014.7
20260508125540 62 171 3.0 9.0 0.00 0.17 0.17 90 1014.8
20260508125040 62 128 2.0 6.0 0.00 0.17 0.17 90 1014.7
20260508124556 62 146 2.0 6.0 0.00 0.17 0.17 90 1014.7
20260508124041 62 138 2.0 4.0 0.00 0.17 0.17 90 1014.9
20260508123538 62 144 2.0 5.0 0.00 0.17 0.17 90 1015.0
20260508123050 62 166 0.0 6.0 0.00 0.17 0.17 90 1014.9
20260508122540 62 0 2.0 9.0 0.00 0.17 0.17 90 1014.5
20260508122038 62 175 6.0 9.0 0.00 0.17 0.17 91 1015.2
20260508121559 61 225 4.0 7.0 0.00 0.17 0.17 92 1015.7
20260508121040 61 5 0.0 3.0 0.00 0.17 0.17 91 1015.1
20260508120538 60 0 0.0 3.0 0.00 0.17 0.17 91 1015.0
20260508120052 60 46 2.0 3.0 0.00 0.17 0.17 91 1015.0
20260508115538 60 78 0.0 5.0 0.00 0.17 0.17 91 1015.1
20260508115038 60 0 0.0 5.0 0.00 0.17 0.17 91 1015.0
20260508114554 60 153 3.0 5.0 0.00 0.17 0.17 91 1014.8
20260508114041 60 128 0.0 3.0 0.00 0.17 0.17 91 1014.7
20260508113540 60 0 0.0 4.0 0.00 0.17 0.17 91 1015.0
20260508113107 60 0 0.0 9.0 0.00 0.17 0.17 91 1014.7
20260508112540 60 0 2.0 9.0 0.00 0.17 0.17 90 1014.6
20260508112040 60 148 4.0 7.0 0.00 0.17 0.17 90 1014.3
20260508111551 61 128 4.0 9.0 0.00 0.17 0.17 90 1014.3
20260508111042 61 123 5.0 9.0 0.08 0.17 0.17 90 1014.4
20260508110538 61 162 2.0 8.0 0.10 0.17 0.17 90 1014.7
20260508110057 61 135 4.0 8.0 0.10 0.17 0.17 90 1014.2
20260508105538 61 140 5.0 9.0 0.10 0.17 0.17 89 1014.3
20260508105038 61 120 4.0 9.0 0.10 0.17 0.17 88 1014.2
20260508104552 62 136 4.0 8.0 0.10 0.17 0.17 88 1014.5
20260508104038 62 151 5.0 8.0 0.10 0.17 0.17 88 1015.2
20260508103539 62 229 4.0 10.0 0.10 0.17 0.17 87 1015.6
20260508103052 62 234 3.0 10.0 0.10 0.17 0.17 87 1015.2
20260508102538 62 186 7.0 10.0 0.10 0.17 0.17 86 1014.7
20260508102043 63 127 5.0 10.0 0.10 0.17 0.17 85 1014.1
20260508101552 63 170 6.0 8.0 0.10 0.17 0.17 84 1014.6
20260508101039 63 243 4.0 9.0 0.02 0.09 0.09 84 1015.1
20260508100538 63 105 2.0 9.0 0.00 0.07 0.07 84 1014.3
20260508100051 63 192 7.0 9.0 0.00 0.07 0.07 84 1014.4
20260508095540 63 183 4.0 8.0 0.00 0.07 0.07 84 1013.9
20260508095039 62 183 3.0 7.0 0.01 0.07 0.07 84 1013.7
20260508094552 62 140 2.0 7.0 0.01 0.07 0.07 84 1013.6
20260508094038 63 119 3.0 9.0 0.01 0.07 0.07 84 1013.5
20260508093540 63 208 4.0 9.0 0.01 0.07 0.07 84 1013.7
20260508093053 63 179 4.0 8.0 0.01 0.07 0.07 85 1013.8
20260508092543 63 161 3.0 10.0 0.01 0.07 0.07 84 1013.7
20260508092038 62 179 4.0 10.0 0.01 0.07 0.07 84 1013.8
20260508091552 62 178 4.0 9.0 0.01 0.07 0.07 85 1013.9
20260508091040 62 150 4.0 7.0 0.01 0.07 0.07 85 1013.8
20260508090538 62 128 3.0 8.0 0.01 0.07 0.07 85 1014.0
20260508090051 62 142 1.0 8.0 0.02 0.07 0.07 84 1014.1
20260508085538 62 157 3.0 8.0 0.05 0.07 0.07 85 1014.0
20260508085041 62 122 3.0 9.0 0.04 0.06 0.06 85 1014.2
20260508084554 62 188 3.0 9.0 0.05 0.06 0.06 85 1014.6
20260508084039 62 180 5.0 9.0 0.06 0.06 0.06 84 1014.1
20260508083539 62 136 5.0 8.0 0.06 0.06 0.06 83 1013.9
20260508083107 62 121 3.0 7.0 0.06 0.06 0.06 83 1014.3
20260508082538 62 195 2.0 7.0 0.06 0.06 0.06 83 1014.8
20260508082039 62 229 5.0 7.0 0.06 0.06 0.06 84 1015.3
20260508081554 62 205 3.0 10.0 0.06 0.06 0.06 84 1015.3
20260508081038 62 0 2.0 11.0 0.06 0.06 0.06 83 1014.6
20260508080540 63 157 6.0 11.0 0.06 0.06 0.06 81 1014.1
20260508080048 64 143 6.0 11.0 0.05 0.05 0.05 79 1014.7